sensor_id;sensor_type;location;lat;lon;timestamp;P1;durP1;ratioP1;P2;durP2;ratioP2
6422;SDS011;3244;42.708;23.288;2024-03-25T00:00:08;0.50;;;0.50;;
6422;SDS011;3244;42.708;23.288;2024-03-25T00:02:37;0.70;;;0.70;;
6422;SDS011;3244;42.708;23.288;2024-03-25T00:05:03;0.88;;;0.57;;
6422;SDS011;3244;42.708;23.288;2024-03-25T00:07:30;1.55;;;0.70;;
6422;SDS011;3244;42.708;23.288;2024-03-25T00:09:56;0.40;;;0.40;;
6422;SDS011;3244;42.708;23.288;2024-03-25T00:12:24;0.55;;;0.50;;
6422;SDS011;3244;42.708;23.288;2024-03-25T00:14:50;0.50;;;0.50;;
6422;SDS011;3244;42.708;23.288;2024-03-25T00:17:18;0.50;;;0.50;;
6422;SDS011;3244;42.708;23.288;2024-03-25T00:19:44;0.52;;;0.52;;
6422;SDS011;3244;42.708;23.288;2024-03-25T00:22:16;0.40;;;0.40;;
6422;SDS011;3244;42.708;23.288;2024-03-25T00:24:41;2.15;;;0.50;;
6422;SDS011;3244;42.708;23.288;2024-03-25T00:27:08;0.50;;;0.50;;
6422;SDS011;3244;42.708;23.288;2024-03-25T00:29:34;0.50;;;0.50;;
6422;SDS011;3244;42.708;23.288;2024-03-25T00:32:00;0.50;;;0.50;;
6422;SDS011;3244;42.708;23.288;2024-03-25T00:34:28;0.50;;;0.50;;
6422;SDS011;3244;42.708;23.288;2024-03-25T00:36:54;0.52;;;0.52;;
6422;SDS011;3244;42.708;23.288;2024-03-25T00:39:20;0.50;;;0.50;;
6422;SDS011;3244;42.708;23.288;2024-03-25T00:41:47;0.40;;;0.40;;
6422;SDS011;3244;42.708;23.288;2024-03-25T00:44:12;0.40;;;0.40;;
6422;SDS011;3244;42.708;23.288;2024-03-25T00:46:39;1.58;;;0.45;;
6422;SDS011;3244;42.708;23.288;2024-03-25T00:49:06;0.50;;;0.50;;
6422;SDS011;3244;42.708;23.288;2024-03-25T00:51:35;1.05;;;0.60;;
6422;SDS011;3244;42.708;23.288;2024-03-25T00:54:01;0.50;;;0.50;;
6422;SDS011;3244;42.708;23.288;2024-03-25T00:56:28;0.50;;;0.50;;
6422;SDS011;3244;42.708;23.288;2024-03-25T00:58:54;0.63;;;0.63;;
6422;SDS011;3244;42.708;23.288;2024-03-25T01:01:22;0.70;;;0.70;;
6422;SDS011;3244;42.708;23.288;2024-03-25T01:03:48;1.13;;;0.50;;
6422;SDS011;3244;42.708;23.288;2024-03-25T01:06:14;2.30;;;0.55;;
6422;SDS011;3244;42.708;23.288;2024-03-25T01:08:42;1.17;;;0.40;;
6422;SDS011;3244;42.708;23.288;2024-03-25T01:11:08;0.50;;;0.50;;
6422;SDS011;3244;42.708;23.288;2024-03-25T01:13:34;0.55;;;0.50;;
6422;SDS011;3244;42.708;23.288;2024-03-25T01:16:01;0.50;;;0.50;;
6422;SDS011;3244;42.708;23.288;2024-03-25T01:18:27;0.60;;;0.50;;
6422;SDS011;3244;42.708;23.288;2024-03-25T01:20:53;0.43;;;0.43;;
6422;SDS011;3244;42.708;23.288;2024-03-25T01:23:20;0.50;;;0.50;;
6422;SDS011;3244;42.708;23.288;2024-03-25T01:25:48;0.50;;;0.50;;
6422;SDS011;3244;42.708;23.288;2024-03-25T01:28:13;2.97;;;0.63;;
6422;SDS011;3244;42.708;23.288;2024-03-25T01:30:40;0.52;;;0.50;;
6422;SDS011;3244;42.708;23.288;2024-03-25T01:33:06;0.70;;;0.70;;
6422;SDS011;3244;42.708;23.288;2024-03-25T01:35:32;0.50;;;0.50;;
6422;SDS011;3244;42.708;23.288;2024-03-25T01:37:59;0.60;;;0.60;;
6422;SDS011;3244;42.708;23.288;2024-03-25T01:40:25;0.50;;;0.50;;
6422;SDS011;3244;42.708;23.288;2024-03-25T01:42:56;0.50;;;0.50;;
6422;SDS011;3244;42.708;23.288;2024-03-25T01:45:23;0.68;;;0.68;;
6422;SDS011;3244;42.708;23.288;2024-03-25T01:47:49;0.55;;;0.55;;
6422;SDS011;3244;42.708;23.288;2024-03-25T01:50:16;0.40;;;0.40;;
6422;SDS011;3244;42.708;23.288;2024-03-25T01:52:42;0.57;;;0.57;;
6422;SDS011;3244;42.708;23.288;2024-03-25T01:55:10;0.80;;;0.80;;
6422;SDS011;3244;42.708;23.288;2024-03-25T01:57:41;0.57;;;0.50;;
6422;SDS011;3244;42.708;23.288;2024-03-25T02:00:11;0.45;;;0.45;;
6422;SDS011;3244;42.708;23.288;2024-03-25T02:02:39;0.50;;;0.50;;
6422;SDS011;3244;42.708;23.288;2024-03-25T02:05:09;0.50;;;0.50;;
6422;SDS011;3244;42.708;23.288;2024-03-25T02:07:35;0.57;;;0.30;;
6422;SDS011;3244;42.708;23.288;2024-03-25T02:10:04;0.40;;;0.40;;
6422;SDS011;3244;42.708;23.288;2024-03-25T02:12:30;0.30;;;0.30;;
6422;SDS011;3244;42.708;23.288;2024-03-25T02:14:57;0.30;;;0.30;;
6422;SDS011;3244;42.708;23.288;2024-03-25T02:17:25;0.52;;;0.52;;
6422;SDS011;3244;42.708;23.288;2024-03-25T02:19:52;0.35;;;0.35;;
6422;SDS011;3244;42.708;23.288;2024-03-25T02:22:17;0.40;;;0.40;;
6422;SDS011;3244;42.708;23.288;2024-03-25T02:24:45;0.50;;;0.50;;
6422;SDS011;3244;42.708;23.288;2024-03-25T02:27:12;0.50;;;0.50;;
6422;SDS011;3244;42.708;23.288;2024-03-25T02:29:40;0.40;;;0.40;;
6422;SDS011;3244;42.708;23.288;2024-03-25T02:32:06;0.43;;;0.43;;
6422;SDS011;3244;42.708;23.288;2024-03-25T02:34:35;0.50;;;0.50;;
6422;SDS011;3244;42.708;23.288;2024-03-25T02:37:01;0.57;;;0.57;;
6422;SDS011;3244;42.708;23.288;2024-03-25T02:39:28;0.50;;;0.50;;
6422;SDS011;3244;42.708;23.288;2024-03-25T02:41:54;0.60;;;0.60;;
6422;SDS011;3244;42.708;23.288;2024-03-25T02:44:22;0.40;;;0.40;;
6422;SDS011;3244;42.708;23.288;2024-03-25T02:46:49;0.60;;;0.60;;
6422;SDS011;3244;42.708;23.288;2024-03-25T02:49:15;0.45;;;0.45;;
6422;SDS011;3244;42.708;23.288;2024-03-25T02:51:41;0.60;;;0.60;;
6422;SDS011;3244;42.708;23.288;2024-03-25T02:54:08;0.30;;;0.30;;
6422;SDS011;3244;42.708;23.288;2024-03-25T02:56:34;0.50;;;0.50;;
6422;SDS011;3244;42.708;23.288;2024-03-25T02:59:01;0.50;;;0.50;;
6422;SDS011;3244;42.708;23.288;2024-03-25T03:01:28;0.50;;;0.50;;
6422;SDS011;3244;42.708;23.288;2024-03-25T03:03:55;0.60;;;0.60;;
6422;SDS011;3244;42.708;23.288;2024-03-25T03:06:21;0.60;;;0.60;;
6422;SDS011;3244;42.708;23.288;2024-03-25T03:08:47;0.80;;;0.80;;
6422;SDS011;3244;42.708;23.288;2024-03-25T03:11:13;0.60;;;0.60;;
6422;SDS011;3244;42.708;23.288;2024-03-25T03:13:40;0.60;;;0.60;;
6422;SDS011;3244;42.708;23.288;2024-03-25T03:16:06;0.50;;;0.50;;
6422;SDS011;3244;42.708;23.288;2024-03-25T03:18:34;0.85;;;0.85;;
6422;SDS011;3244;42.708;23.288;2024-03-25T03:21:00;0.95;;;0.95;;
6422;SDS011;3244;42.708;23.288;2024-03-25T03:23:26;0.60;;;0.60;;
6422;SDS011;3244;42.708;23.288;2024-03-25T03:25:52;1.58;;;0.90;;
6422;SDS011;3244;42.708;23.288;2024-03-25T03:28:19;1.60;;;0.60;;
6422;SDS011;3244;42.708;23.288;2024-03-25T03:30:44;0.55;;;0.55;;
6422;SDS011;3244;42.708;23.288;2024-03-25T03:33:11;0.70;;;0.70;;
6422;SDS011;3244;42.708;23.288;2024-03-25T03:35:38;0.68;;;0.68;;
6422;SDS011;3244;42.708;23.288;2024-03-25T03:38:05;0.73;;;0.65;;
6422;SDS011;3244;42.708;23.288;2024-03-25T03:40:31;0.73;;;0.73;;
6422;SDS011;3244;42.708;23.288;2024-03-25T03:42:58;0.88;;;0.88;;
6422;SDS011;3244;42.708;23.288;2024-03-25T03:45:24;1.30;;;1.30;;
6422;SDS011;3244;42.708;23.288;2024-03-25T03:47:51;0.77;;;0.77;;
6422;SDS011;3244;42.708;23.288;2024-03-25T03:50:17;0.93;;;0.93;;
6422;SDS011;3244;42.708;23.288;2024-03-25T03:52:45;1.02;;;1.02;;
6422;SDS011;3244;42.708;23.288;2024-03-25T03:55:11;0.90;;;0.90;;
6422;SDS011;3244;42.708;23.288;2024-03-25T03:57:37;0.80;;;0.80;;
6422;SDS011;3244;42.708;23.288;2024-03-25T04:00:03;1.23;;;1.15;;
6422;SDS011;3244;42.708;23.288;2024-03-25T04:02:30;1.70;;;1.60;;
6422;SDS011;3244;42.708;23.288;2024-03-25T04:04:56;1.40;;;1.30;;
6422;SDS011;3244;42.708;23.288;2024-03-25T04:07:23;1.40;;;1.40;;
6422;SDS011;3244;42.708;23.288;2024-03-25T04:09:53;1.33;;;1.33;;
6422;SDS011;3244;42.708;23.288;2024-03-25T04:12:20;1.88;;;1.77;;
6422;SDS011;3244;42.708;23.288;2024-03-25T04:14:46;1.58;;;1.48;;
6422;SDS011;3244;42.708;23.288;2024-03-25T04:17:14;1.58;;;1.48;;
6422;SDS011;3244;42.708;23.288;2024-03-25T04:19:40;1.75;;;1.50;;
6422;SDS011;3244;42.708;23.288;2024-03-25T04:22:06;1.98;;;1.88;;
6422;SDS011;3244;42.708;23.288;2024-03-25T04:24:32;2.53;;;2.33;;
6422;SDS011;3244;42.708;23.288;2024-03-25T04:27:01;1.80;;;1.70;;
6422;SDS011;3244;42.708;23.288;2024-03-25T04:29:26;2.00;;;1.90;;
6422;SDS011;3244;42.708;23.288;2024-03-25T04:31:54;2.60;;;2.40;;
6422;SDS011;3244;42.708;23.288;2024-03-25T04:34:20;2.95;;;2.42;;
6422;SDS011;3244;42.708;23.288;2024-03-25T04:36:48;3.42;;;3.00;;
6422;SDS011;3244;42.708;23.288;2024-03-25T04:39:14;3.20;;;2.90;;
6422;SDS011;3244;42.708;23.288;2024-03-25T04:41:39;4.10;;;3.80;;
6422;SDS011;3244;42.708;23.288;2024-03-25T04:44:07;2.88;;;2.67;;
6422;SDS011;3244;42.708;23.288;2024-03-25T04:46:32;4.20;;;3.80;;
6422;SDS011;3244;42.708;23.288;2024-03-25T04:48:58;4.80;;;3.97;;
6422;SDS011;3244;42.708;23.288;2024-03-25T04:51:24;3.40;;;3.20;;
6422;SDS011;3244;42.708;23.288;2024-03-25T04:53:50;3.47;;;3.28;;
6422;SDS011;3244;42.708;23.288;2024-03-25T04:56:15;4.93;;;4.43;;
6422;SDS011;3244;42.708;23.288;2024-03-25T04:58:41;14.57;;;10.20;;
6422;SDS011;3244;42.708;23.288;2024-03-25T05:01:08;5.78;;;5.03;;
6422;SDS011;3244;42.708;23.288;2024-03-25T05:03:34;3.95;;;3.65;;
6422;SDS011;3244;42.708;23.288;2024-03-25T05:06:00;3.60;;;3.35;;
6422;SDS011;3244;42.708;23.288;2024-03-25T05:08:26;4.32;;;4.00;;
6422;SDS011;3244;42.708;23.288;2024-03-25T05:10:51;5.25;;;4.75;;
6422;SDS011;3244;42.708;23.288;2024-03-25T05:13:17;5.28;;;4.63;;
6422;SDS011;3244;42.708;23.288;2024-03-25T05:15:49;4.30;;;4.00;;
6422;SDS011;3244;42.708;23.288;2024-03-25T05:18:16;5.32;;;4.82;;
6422;SDS011;3244;42.708;23.288;2024-03-25T05:20:42;5.70;;;5.20;;
6422;SDS011;3244;42.708;23.288;2024-03-25T05:23:08;5.18;;;4.78;;
6422;SDS011;3244;42.708;23.288;2024-03-25T05:25:34;14.00;;;9.43;;
6422;SDS011;3244;42.708;23.288;2024-03-25T05:28:00;7.53;;;6.25;;
6422;SDS011;3244;42.708;23.288;2024-03-25T05:30:26;6.55;;;5.80;;
6422;SDS011;3244;42.708;23.288;2024-03-25T05:32:51;5.70;;;5.30;;
6422;SDS011;3244;42.708;23.288;2024-03-25T05:35:19;7.80;;;5.38;;
6422;SDS011;3244;42.708;23.288;2024-03-25T05:37:44;5.95;;;5.30;;
6422;SDS011;3244;42.708;23.288;2024-03-25T05:40:10;6.30;;;5.70;;
6422;SDS011;3244;42.708;23.288;2024-03-25T05:42:37;9.18;;;7.10;;
6422;SDS011;3244;42.708;23.288;2024-03-25T05:45:03;7.13;;;6.00;;
6422;SDS011;3244;42.708;23.288;2024-03-25T05:47:29;6.28;;;5.75;;
6422;SDS011;3244;42.708;23.288;2024-03-25T05:49:55;6.18;;;5.68;;
6422;SDS011;3244;42.708;23.288;2024-03-25T05:52:22;6.50;;;6.00;;
6422;SDS011;3244;42.708;23.288;2024-03-25T05:54:47;5.85;;;5.35;;
6422;SDS011;3244;42.708;23.288;2024-03-25T05:57:13;6.00;;;5.50;;
6422;SDS011;3244;42.708;23.288;2024-03-25T05:59:39;5.68;;;5.20;;
6422;SDS011;3244;42.708;23.288;2024-03-25T06:02:05;6.50;;;6.03;;
6422;SDS011;3244;42.708;23.288;2024-03-25T06:04:30;6.07;;;5.28;;
6422;SDS011;3244;42.708;23.288;2024-03-25T06:06:56;6.20;;;5.70;;
6422;SDS011;3244;42.708;23.288;2024-03-25T06:09:23;6.57;;;6.05;;
6422;SDS011;3244;42.708;23.288;2024-03-25T06:11:49;6.30;;;5.60;;
6422;SDS011;3244;42.708;23.288;2024-03-25T06:14:15;5.63;;;5.22;;
6422;SDS011;3244;42.708;23.288;2024-03-25T06:16:40;6.15;;;5.63;;
6422;SDS011;3244;42.708;23.288;2024-03-25T06:19:06;5.35;;;5.03;;
6422;SDS011;3244;42.708;23.288;2024-03-25T06:21:32;8.48;;;7.18;;
6422;SDS011;3244;42.708;23.288;2024-03-25T06:23:58;7.30;;;6.50;;
6422;SDS011;3244;42.708;23.288;2024-03-25T06:26:25;6.90;;;6.35;;
6422;SDS011;3244;42.708;23.288;2024-03-25T06:28:51;6.03;;;5.45;;
6422;SDS011;3244;42.708;23.288;2024-03-25T06:31:16;6.70;;;6.13;;
6422;SDS011;3244;42.708;23.288;2024-03-25T06:34:01;6.32;;;5.93;;
6422;SDS011;3244;42.708;23.288;2024-03-25T06:36:42;6.57;;;6.07;;
6422;SDS011;3244;42.708;23.288;2024-03-25T06:39:08;6.45;;;6.03;;
6422;SDS011;3244;42.708;23.288;2024-03-25T06:41:36;5.63;;;5.25;;
6422;SDS011;3244;42.708;23.288;2024-03-25T06:44:01;5.68;;;5.28;;
6422;SDS011;3244;42.708;23.288;2024-03-25T06:46:27;6.63;;;6.13;;
6422;SDS011;3244;42.708;23.288;2024-03-25T06:48:52;6.35;;;5.95;;
6422;SDS011;3244;42.708;23.288;2024-03-25T06:51:18;5.93;;;5.55;;
6422;SDS011;3244;42.708;23.288;2024-03-25T06:53:43;5.80;;;5.40;;
6422;SDS011;3244;42.708;23.288;2024-03-25T06:56:09;6.13;;;5.72;;
6422;SDS011;3244;42.708;23.288;2024-03-25T06:58:36;6.28;;;5.78;;
6422;SDS011;3244;42.708;23.288;2024-03-25T07:01:03;5.88;;;5.57;;
6422;SDS011;3244;42.708;23.288;2024-03-25T07:03:29;5.68;;;5.28;;
6422;SDS011;3244;42.708;23.288;2024-03-25T07:05:55;5.53;;;5.18;;
6422;SDS011;3244;42.708;23.288;2024-03-25T07:08:21;5.43;;;5.10;;
6422;SDS011;3244;42.708;23.288;2024-03-25T07:10:47;5.32;;;4.93;;
6422;SDS011;3244;42.708;23.288;2024-03-25T07:13:13;5.03;;;4.72;;
6422;SDS011;3244;42.708;23.288;2024-03-25T07:15:40;5.10;;;4.70;;
6422;SDS011;3244;42.708;23.288;2024-03-25T07:18:06;5.15;;;4.93;;
6422;SDS011;3244;42.708;23.288;2024-03-25T07:20:32;6.40;;;6.03;;
6422;SDS011;3244;42.708;23.288;2024-03-25T07:22:58;5.68;;;5.30;;
6422;SDS011;3244;42.708;23.288;2024-03-25T07:25:24;5.97;;;5.50;;
6422;SDS011;3244;42.708;23.288;2024-03-25T07:27:50;6.57;;;5.97;;
6422;SDS011;3244;42.708;23.288;2024-03-25T07:30:16;5.60;;;5.13;;
6422;SDS011;3244;42.708;23.288;2024-03-25T07:32:43;5.68;;;5.00;;
6422;SDS011;3244;42.708;23.288;2024-03-25T07:35:10;5.78;;;5.20;;
6422;SDS011;3244;42.708;23.288;2024-03-25T07:37:35;5.10;;;4.70;;
6422;SDS011;3244;42.708;23.288;2024-03-25T07:40:01;4.75;;;4.45;;
6422;SDS011;3244;42.708;23.288;2024-03-25T07:42:28;4.80;;;4.50;;
6422;SDS011;3244;42.708;23.288;2024-03-25T07:44:53;4.97;;;4.68;;
6422;SDS011;3244;42.708;23.288;2024-03-25T07:47:19;4.38;;;4.18;;
6422;SDS011;3244;42.708;23.288;2024-03-25T07:49:46;4.47;;;4.28;;
6422;SDS011;3244;42.708;23.288;2024-03-25T07:52:11;4.40;;;4.20;;
6422;SDS011;3244;42.708;23.288;2024-03-25T07:54:37;5.18;;;4.72;;
6422;SDS011;3244;42.708;23.288;2024-03-25T07:57:03;4.93;;;4.55;;
6422;SDS011;3244;42.708;23.288;2024-03-25T07:59:28;5.32;;;4.95;;
6422;SDS011;3244;42.708;23.288;2024-03-25T08:01:54;5.72;;;5.15;;
6422;SDS011;3244;42.708;23.288;2024-03-25T08:04:19;4.63;;;4.32;;
6422;SDS011;3244;42.708;23.288;2024-03-25T08:06:46;3.85;;;3.65;;
6422;SDS011;3244;42.708;23.288;2024-03-25T08:09:12;4.55;;;4.20;;
6422;SDS011;3244;42.708;23.288;2024-03-25T08:11:37;5.68;;;5.28;;
6422;SDS011;3244;42.708;23.288;2024-03-25T08:14:03;5.40;;;4.93;;
6422;SDS011;3244;42.708;23.288;2024-03-25T08:16:28;5.18;;;4.75;;
6422;SDS011;3244;42.708;23.288;2024-03-25T08:18:54;6.45;;;4.60;;
6422;SDS011;3244;42.708;23.288;2024-03-25T08:21:19;3.60;;;3.38;;
6422;SDS011;3244;42.708;23.288;2024-03-25T08:23:46;4.40;;;4.07;;
6422;SDS011;3244;42.708;23.288;2024-03-25T08:26:12;3.80;;;3.60;;
6422;SDS011;3244;42.708;23.288;2024-03-25T08:28:40;4.35;;;3.97;;
6422;SDS011;3244;42.708;23.288;2024-03-25T08:31:06;3.88;;;3.60;;
6422;SDS011;3244;42.708;23.288;2024-03-25T08:33:31;3.78;;;3.58;;
6422;SDS011;3244;42.708;23.288;2024-03-25T08:35:57;3.60;;;3.30;;
6422;SDS011;3244;42.708;23.288;2024-03-25T08:38:22;3.90;;;3.70;;
6422;SDS011;3244;42.708;23.288;2024-03-25T08:40:50;4.30;;;4.10;;
6422;SDS011;3244;42.708;23.288;2024-03-25T08:43:17;3.90;;;3.65;;
6422;SDS011;3244;42.708;23.288;2024-03-25T08:45:42;4.63;;;4.32;;
6422;SDS011;3244;42.708;23.288;2024-03-25T08:48:08;4.72;;;4.45;;
6422;SDS011;3244;42.708;23.288;2024-03-25T08:50:33;5.35;;;4.90;;
6422;SDS011;3244;42.708;23.288;2024-03-25T08:52:59;5.20;;;4.72;;
6422;SDS011;3244;42.708;23.288;2024-03-25T08:55:24;6.13;;;5.63;;
6422;SDS011;3244;42.708;23.288;2024-03-25T08:57:51;4.88;;;4.57;;
6422;SDS011;3244;42.708;23.288;2024-03-25T09:00:17;5.13;;;4.72;;
6422;SDS011;3244;42.708;23.288;2024-03-25T09:02:43;4.65;;;4.45;;
6422;SDS011;3244;42.708;23.288;2024-03-25T09:05:09;5.15;;;4.78;;
6422;SDS011;3244;42.708;23.288;2024-03-25T09:07:34;5.50;;;5.18;;
6422;SDS011;3244;42.708;23.288;2024-03-25T09:10:00;5.00;;;4.70;;
6422;SDS011;3244;42.708;23.288;2024-03-25T09:12:44;4.72;;;4.43;;
6422;SDS011;3244;42.708;23.288;2024-03-25T09:15:11;4.93;;;4.63;;
6422;SDS011;3244;42.708;23.288;2024-03-25T09:17:37;5.22;;;4.78;;
6422;SDS011;3244;42.708;23.288;2024-03-25T09:20:03;5.35;;;5.05;;
6422;SDS011;3244;42.708;23.288;2024-03-25T09:22:29;7.13;;;5.82;;
6422;SDS011;3244;42.708;23.288;2024-03-25T09:24:54;5.65;;;5.15;;
6422;SDS011;3244;42.708;23.288;2024-03-25T09:27:20;5.30;;;4.80;;
6422;SDS011;3244;42.708;23.288;2024-03-25T09:29:45;6.10;;;5.60;;
6422;SDS011;3244;42.708;23.288;2024-03-25T09:32:12;7.32;;;6.63;;
6422;SDS011;3244;42.708;23.288;2024-03-25T09:34:39;6.15;;;5.60;;
6422;SDS011;3244;42.708;23.288;2024-03-25T09:37:04;5.32;;;4.72;;
6422;SDS011;3244;42.708;23.288;2024-03-25T09:39:30;5.43;;;5.13;;
6422;SDS011;3244;42.708;23.288;2024-03-25T09:41:55;5.68;;;5.28;;
6422;SDS011;3244;42.708;23.288;2024-03-25T09:44:24;5.30;;;4.90;;
6422;SDS011;3244;42.708;23.288;2024-03-25T09:46:49;4.28;;;3.97;;
6422;SDS011;3244;42.708;23.288;2024-03-25T09:49:16;4.45;;;4.15;;
6422;SDS011;3244;42.708;23.288;2024-03-25T09:51:42;4.72;;;4.32;;
6422;SDS011;3244;42.708;23.288;2024-03-25T09:54:08;5.10;;;4.80;;
6422;SDS011;3244;42.708;23.288;2024-03-25T09:56:33;4.60;;;4.30;;
6422;SDS011;3244;42.708;23.288;2024-03-25T09:58:59;5.68;;;4.70;;
6422;SDS011;3244;42.708;23.288;2024-03-25T10:01:25;4.60;;;4.30;;
6422;SDS011;3244;42.708;23.288;2024-03-25T10:03:51;4.78;;;4.47;;
6422;SDS011;3244;42.708;23.288;2024-03-25T10:06:18;5.32;;;4.28;;
6422;SDS011;3244;42.708;23.288;2024-03-25T10:08:44;3.88;;;3.67;;
6422;SDS011;3244;42.708;23.288;2024-03-25T10:11:10;4.10;;;3.90;;
6422;SDS011;3244;42.708;23.288;2024-03-25T10:13:35;4.10;;;3.90;;
6422;SDS011;3244;42.708;23.288;2024-03-25T10:16:02;4.10;;;3.90;;
6422;SDS011;3244;42.708;23.288;2024-03-25T10:18:27;4.38;;;4.07;;
6422;SDS011;3244;42.708;23.288;2024-03-25T10:20:53;4.25;;;3.85;;
6422;SDS011;3244;42.708;23.288;2024-03-25T10:23:21;4.10;;;3.80;;
6422;SDS011;3244;42.708;23.288;2024-03-25T10:25:48;3.92;;;3.72;;
6422;SDS011;3244;42.708;23.288;2024-03-25T10:28:13;3.20;;;3.00;;
6422;SDS011;3244;42.708;23.288;2024-03-25T10:30:39;3.50;;;3.30;;
6422;SDS011;3244;42.708;23.288;2024-03-25T10:33:06;3.65;;;3.45;;
6422;SDS011;3244;42.708;23.288;2024-03-25T10:35:32;3.60;;;3.40;;
6422;SDS011;3244;42.708;23.288;2024-03-25T10:37:58;2.83;;;2.63;;
6422;SDS011;3244;42.708;23.288;2024-03-25T10:40:27;2.95;;;2.83;;
6422;SDS011;3244;42.708;23.288;2024-03-25T10:42:54;2.60;;;2.50;;
6422;SDS011;3244;42.708;23.288;2024-03-25T10:45:21;4.40;;;2.70;;
6422;SDS011;3244;42.708;23.288;2024-03-25T10:47:46;3.08;;;2.88;;
6422;SDS011;3244;42.708;23.288;2024-03-25T10:50:12;3.22;;;2.90;;
6422;SDS011;3244;42.708;23.288;2024-03-25T10:52:41;7.05;;;3.38;;
6422;SDS011;3244;42.708;23.288;2024-03-25T10:55:07;3.65;;;2.55;;
6422;SDS011;3244;42.708;23.288;2024-03-25T10:57:35;2.80;;;2.70;;
6422;SDS011;3244;42.708;23.288;2024-03-25T11:00:00;3.50;;;3.25;;
6422;SDS011;3244;42.708;23.288;2024-03-25T11:02:26;4.93;;;3.30;;
6422;SDS011;3244;42.708;23.288;2024-03-25T11:04:52;3.78;;;3.47;;
6422;SDS011;3244;42.708;23.288;2024-03-25T11:07:18;3.22;;;3.03;;
6422;SDS011;3244;42.708;23.288;2024-03-25T11:09:52;3.30;;;2.92;;
6422;SDS011;3244;42.708;23.288;2024-03-25T11:12:31;3.38;;;2.58;;
6422;SDS011;3244;42.708;23.288;2024-03-25T11:15:00;2.65;;;2.55;;
6422;SDS011;3244;42.708;23.288;2024-03-25T11:17:25;2.90;;;2.80;;
6422;SDS011;3244;42.708;23.288;2024-03-25T11:19:51;3.65;;;3.35;;
6422;SDS011;3244;42.708;23.288;2024-03-25T11:22:16;2.78;;;2.67;;
6422;SDS011;3244;42.708;23.288;2024-03-25T11:24:49;2.70;;;2.60;;
6422;SDS011;3244;42.708;23.288;2024-03-25T11:27:14;2.55;;;2.30;;
6422;SDS011;3244;42.708;23.288;2024-03-25T11:29:40;2.33;;;2.22;;
6422;SDS011;3244;42.708;23.288;2024-03-25T11:32:07;4.63;;;2.20;;
6422;SDS011;3244;42.708;23.288;2024-03-25T11:34:32;2.30;;;2.20;;
6422;SDS011;3244;42.708;23.288;2024-03-25T11:36:58;3.08;;;2.75;;
6422;SDS011;3244;42.708;23.288;2024-03-25T11:39:24;2.92;;;2.70;;
6422;SDS011;3244;42.708;23.288;2024-03-25T11:41:49;3.13;;;2.92;;
6422;SDS011;3244;42.708;23.288;2024-03-25T11:44:15;3.38;;;3.20;;
6422;SDS011;3244;42.708;23.288;2024-03-25T11:46:41;3.55;;;3.25;;
6422;SDS011;3244;42.708;23.288;2024-03-25T11:49:11;3.00;;;2.80;;
6422;SDS011;3244;42.708;23.288;2024-03-25T11:51:37;2.65;;;2.55;;
6422;SDS011;3244;42.708;23.288;2024-03-25T11:54:03;3.63;;;3.33;;
6422;SDS011;3244;42.708;23.288;2024-03-25T11:56:28;2.05;;;1.95;;
6422;SDS011;3244;42.708;23.288;2024-03-25T11:58:54;2.00;;;1.90;;
6422;SDS011;3244;42.708;23.288;2024-03-25T12:01:20;2.42;;;2.33;;
6422;SDS011;3244;42.708;23.288;2024-03-25T12:03:45;2.25;;;2.15;;
6422;SDS011;3244;42.708;23.288;2024-03-25T12:06:12;2.85;;;2.20;;
6422;SDS011;3244;42.708;23.288;2024-03-25T12:08:38;2.30;;;2.20;;
6422;SDS011;3244;42.708;23.288;2024-03-25T12:11:03;2.60;;;2.50;;
6422;SDS011;3244;42.708;23.288;2024-03-25T12:13:44;2.47;;;2.33;;
6422;SDS011;3244;42.708;23.288;2024-03-25T12:16:09;2.60;;;2.50;;
6422;SDS011;3244;42.708;23.288;2024-03-25T12:18:35;3.45;;;2.42;;
6422;SDS011;3244;42.708;23.288;2024-03-25T12:21:01;2.85;;;2.65;;
6422;SDS011;3244;42.708;23.288;2024-03-25T12:23:29;3.03;;;2.83;;
6422;SDS011;3244;42.708;23.288;2024-03-25T12:25:55;2.85;;;2.65;;
6422;SDS011;3244;42.708;23.288;2024-03-25T12:28:21;2.80;;;2.63;;
6422;SDS011;3244;42.708;23.288;2024-03-25T12:30:50;3.30;;;2.55;;
6422;SDS011;3244;42.708;23.288;2024-03-25T12:33:16;2.35;;;2.25;;
6422;SDS011;3244;42.708;23.288;2024-03-25T12:35:42;3.20;;;2.95;;
6422;SDS011;3244;42.708;23.288;2024-03-25T12:38:10;2.30;;;2.20;;
6422;SDS011;3244;42.708;23.288;2024-03-25T12:40:36;2.78;;;2.58;;
6422;SDS011;3244;42.708;23.288;2024-03-25T12:43:02;2.80;;;2.60;;
6422;SDS011;3244;42.708;23.288;2024-03-25T12:45:28;2.60;;;2.50;;
6422;SDS011;3244;42.708;23.288;2024-03-25T12:47:53;2.92;;;2.58;;
6422;SDS011;3244;42.708;23.288;2024-03-25T12:50:19;2.90;;;2.60;;
6422;SDS011;3244;42.708;23.288;2024-03-25T12:52:45;2.35;;;2.25;;
6422;SDS011;3244;42.708;23.288;2024-03-25T12:55:10;2.85;;;2.65;;
6422;SDS011;3244;42.708;23.288;2024-03-25T12:57:37;3.47;;;2.42;;
6422;SDS011;3244;42.708;23.288;2024-03-25T13:00:03;2.70;;;2.53;;
6422;SDS011;3244;42.708;23.288;2024-03-25T13:02:28;2.30;;;2.20;;
6422;SDS011;3244;42.708;23.288;2024-03-25T13:04:54;2.55;;;2.40;;
6422;SDS011;3244;42.708;23.288;2024-03-25T13:07:19;2.90;;;2.70;;
6422;SDS011;3244;42.708;23.288;2024-03-25T13:09:46;2.95;;;2.70;;
6422;SDS011;3244;42.708;23.288;2024-03-25T13:12:12;2.75;;;2.30;;
6422;SDS011;3244;42.708;23.288;2024-03-25T13:14:39;2.80;;;2.67;;
6422;SDS011;3244;42.708;23.288;2024-03-25T13:17:04;3.33;;;2.70;;
6422;SDS011;3244;42.708;23.288;2024-03-25T13:19:30;2.90;;;2.67;;
6422;SDS011;3244;42.708;23.288;2024-03-25T13:21:55;2.63;;;2.53;;
6422;SDS011;3244;42.708;23.288;2024-03-25T13:24:21;3.00;;;2.80;;
6422;SDS011;3244;42.708;23.288;2024-03-25T13:26:46;2.35;;;2.25;;
6422;SDS011;3244;42.708;23.288;2024-03-25T13:29:12;2.40;;;2.28;;
6422;SDS011;3244;42.708;23.288;2024-03-25T13:31:39;3.72;;;2.63;;
6422;SDS011;3244;42.708;23.288;2024-03-25T13:34:04;2.22;;;2.13;;
6422;SDS011;3244;42.708;23.288;2024-03-25T13:36:30;2.55;;;2.35;;
6422;SDS011;3244;42.708;23.288;2024-03-25T13:38:56;2.50;;;2.30;;
6422;SDS011;3244;42.708;23.288;2024-03-25T13:41:22;2.30;;;2.10;;
6422;SDS011;3244;42.708;23.288;2024-03-25T13:43:47;1.77;;;1.67;;
6422;SDS011;3244;42.708;23.288;2024-03-25T13:46:13;2.58;;;2.38;;
6422;SDS011;3244;42.708;23.288;2024-03-25T13:48:40;2.10;;;2.00;;
6422;SDS011;3244;42.708;23.288;2024-03-25T13:51:05;2.13;;;2.03;;
6422;SDS011;3244;42.708;23.288;2024-03-25T13:53:31;2.22;;;2.03;;
6422;SDS011;3244;42.708;23.288;2024-03-25T13:55:57;3.50;;;1.50;;
6422;SDS011;3244;42.708;23.288;2024-03-25T13:58:22;3.28;;;1.30;;
6422;SDS011;3244;42.708;23.288;2024-03-25T14:00:48;2.50;;;1.15;;
6422;SDS011;3244;42.708;23.288;2024-03-25T14:03:14;3.22;;;0.90;;
6422;SDS011;3244;42.708;23.288;2024-03-25T14:05:40;1.48;;;1.38;;
6422;SDS011;3244;42.708;23.288;2024-03-25T14:08:06;1.48;;;1.15;;
6422;SDS011;3244;42.708;23.288;2024-03-25T14:10:32;7.07;;;1.48;;
6422;SDS011;3244;42.708;23.288;2024-03-25T14:12:57;1.50;;;1.40;;
6422;SDS011;3244;42.708;23.288;2024-03-25T14:15:23;1.48;;;1.38;;
6422;SDS011;3244;42.708;23.288;2024-03-25T14:17:49;1.27;;;1.27;;
6422;SDS011;3244;42.708;23.288;2024-03-25T14:20:14;1.42;;;1.33;;
6422;SDS011;3244;42.708;23.288;2024-03-25T14:22:41;5.70;;;1.42;;
6422;SDS011;3244;42.708;23.288;2024-03-25T14:25:07;1.70;;;1.35;;
6422;SDS011;3244;42.708;23.288;2024-03-25T14:27:32;1.38;;;1.27;;
6422;SDS011;3244;42.708;23.288;2024-03-25T14:29:58;1.95;;;1.17;;
6422;SDS011;3244;42.708;23.288;2024-03-25T14:32:23;1.75;;;1.48;;
6422;SDS011;3244;42.708;23.288;2024-03-25T14:34:49;2.78;;;1.25;;
6422;SDS011;3244;42.708;23.288;2024-03-25T14:37:15;1.17;;;1.08;;
6422;SDS011;3244;42.708;23.288;2024-03-25T14:39:42;2.47;;;1.20;;
6422;SDS011;3244;42.708;23.288;2024-03-25T14:42:07;1.10;;;1.10;;
6422;SDS011;3244;42.708;23.288;2024-03-25T14:44:34;1.02;;;1.02;;
6422;SDS011;3244;42.708;23.288;2024-03-25T14:47:00;1.33;;;1.20;;
6422;SDS011;3244;42.708;23.288;2024-03-25T14:49:25;3.10;;;1.63;;
6422;SDS011;3244;42.708;23.288;2024-03-25T14:51:51;1.35;;;1.25;;
6422;SDS011;3244;42.708;23.288;2024-03-25T14:54:17;3.38;;;1.70;;